Time;durP1;ratioP1;P1;durP2;ratioP2;P2;SDS_P1;SDS_P2;PMS_P1;PMS_P2;Temp;Humidity;BMP_temperature;BMP_pressure;BME280_temperature;BME280_humidity;BME280_pressure;Samples;Min_cycle;Max_cycle;Signal;HPM_P1;HPM_P2
2021/07/05 00:00:16;;;;;;;9.73;8.10;;;;;;;-144.13;100.00;64086.75;5014688;28;20498;-47
2021/07/05 00:02:42;;;;;;;10.32;8.43;;;;;;;-144.13;100.00;64086.75;5011647;28;20041;-48
2021/07/05 00:05:09;;;;;;;10.63;8.57;;;;;;;-144.13;100.00;64086.75;5012658;28;20425;-47
2021/07/05 00:07:35;;;;;;;10.73;8.77;;;;;;;-144.13;100.00;64086.75;5016649;28;20040;-48
2021/07/05 00:10:04;;;;;;;13.95;8.80;;;;;;;-144.13;100.00;64086.75;5016351;28;20033;-47
2021/07/05 00:12:30;;;;;;;13.73;9.48;;;;;;;-144.13;100.00;64086.75;5010234;28;20499;-47
2021/07/05 00:14:55;;;;;;;10.55;9.45;;;;;;;-144.13;100.00;64086.75;5015614;28;20060;-47
2021/07/05 00:17:21;;;;;;;9.88;8.88;;;;;;;-144.13;100.00;64086.75;4997880;28;20048;-46
2021/07/05 00:19:46;;;;;;;11.90;8.98;;;;;;;-144.13;100.00;64086.75;5015495;28;20750;-48
2021/07/05 00:22:12;;;;;;;10.07;8.98;;;;;;;-144.13;100.00;64086.75;5016794;28;20029;-47
2021/07/05 00:24:37;;;;;;;13.38;9.38;;;;;;;-144.13;100.00;64086.75;5016252;28;20034;-46
2021/07/05 00:27:03;;;;;;;11.85;9.93;;;;;;;-144.13;100.00;64086.75;5014476;28;20517;-48
2021/07/05 00:29:28;;;;;;;11.40;9.10;;;;;;;-144.13;100.00;64086.75;5018712;28;20025;-47
2021/07/05 00:31:54;;;;;;;11.60;10.23;;;;;;;-144.13;100.00;64086.75;5017388;28;20077;-46
2021/07/05 00:34:19;;;;;;;12.13;9.85;;;;;;;-144.13;100.00;64086.75;5013390;28;20025;-46
2021/07/05 00:36:45;;;;;;;11.45;9.20;;;;;;;-144.13;100.00;64086.75;5009143;28;20080;-47
2021/07/05 00:39:10;;;;;;;14.32;11.02;;;;;;;-144.13;100.00;64086.75;5009900;28;20109;-46
2021/07/05 00:41:36;;;;;;;11.63;8.82;;;;;;;-144.13;100.00;64086.75;5008748;28;20053;-47
2021/07/05 00:44:02;;;;;;;12.57;9.43;;;;;;;-144.13;100.00;64086.75;4998118;28;20030;-47
2021/07/05 00:46:28;;;;;;;11.35;8.10;;;;;;;-144.13;100.00;64086.75;5011704;28;20112;-47
2021/07/05 00:48:54;;;;;;;10.40;8.05;;;;;;;-144.13;100.00;64086.75;5008866;28;20116;-46
2021/07/05 00:51:20;;;;;;;10.30;8.73;;;;;;;-144.13;100.00;64086.75;5008916;28;20033;-46
2021/07/05 00:53:47;;;;;;;11.15;8.13;;;;;;;-144.13;100.00;64086.75;5009922;28;20064;-47
2021/07/05 00:56:14;;;;;;;14.70;8.15;;;;;;;-144.13;100.00;64086.75;4999851;28;20029;-46
2021/07/05 00:58:39;;;;;;;12.73;9.85;;;;;;;-144.13;100.00;64086.75;5018556;28;20055;-47
2021/07/05 01:01:05;;;;;;;11.63;10.15;;;;;;;-144.13;100.00;64086.75;5016435;28;20026;-47
2021/07/05 01:03:32;;;;;;;11.68;9.85;;;;;;;-144.13;100.00;64086.75;5016003;28;20096;-46
2021/07/05 01:05:57;;;;;;;11.65;10.32;;;;;;;-144.13;100.00;64086.75;5013373;28;20524;-46
2021/07/05 01:08:23;;;;;;;11.55;9.38;;;;;;;-144.13;100.00;64086.75;5014500;28;20172;-45
2021/07/05 01:10:48;;;;;;;11.40;10.18;;;;;;;-144.13;100.00;64086.75;5014013;28;20293;-46
2021/07/05 01:13:14;;;;;;;11.77;10.05;;;;;;;-144.13;100.00;64086.75;5014078;28;20021;-46
2021/07/05 01:15:39;;;;;;;14.25;10.85;;;;;;;-144.13;100.00;64086.75;5015460;28;20052;-46
2021/07/05 01:18:06;;;;;;;11.38;9.40;;;;;;;-144.13;100.00;64086.75;5016296;28;20030;-46
2021/07/05 01:20:36;;;;;;;12.23;9.98;;;;;;;-144.13;100.00;64086.75;5017951;28;20084;-46
2021/07/05 01:23:03;;;;;;;9.93;8.93;;;;;;;-144.13;100.00;64086.75;5013222;28;20025;-47
2021/07/05 01:25:30;;;;;;;10.98;9.88;;;;;;;-144.13;100.00;64086.75;5016940;28;20063;-46
2021/07/05 01:27:58;;;;;;;12.52;9.88;;;;;;;-144.13;100.00;64086.75;5013897;28;20771;-46
2021/07/05 01:30:25;;;;;;;11.32;9.93;;;;;;;-144.13;100.00;64086.75;5018967;28;20108;-46
2021/07/05 01:32:58;;;;;;;19.27;9.27;;;;;;;-144.13;100.00;64086.75;5015474;28;20025;-46
2021/07/05 01:35:24;;;;;;;17.58;8.98;;;;;;;-144.13;100.00;64086.75;5014069;28;20037;-46
2021/07/05 01:37:49;;;;;;;12.85;8.93;;;;;;;-144.13;100.00;64086.75;5012409;28;20476;-48
2021/07/05 01:40:18;;;;;;;11.75;8.95;;;;;;;-144.13;100.00;64086.75;5012332;28;20182;-46
2021/07/05 01:42:56;;;;;;;12.02;8.90;;;;;;;-144.13;100.00;64086.75;5017540;28;20093;-47
2021/07/05 01:45:32;;;;;;;13.30;10.45;;;;;;;-144.13;100.00;64086.75;5015330;28;20506;-47
2021/07/05 01:47:59;;;;;;;13.45;9.40;;;;;;;-144.13;100.00;64086.75;5015200;28;20480;-46
2021/07/05 01:50:25;;;;;;;12.50;9.23;;;;;;;-144.13;100.00;64086.75;5015860;28;20035;-47
2021/07/05 01:52:52;;;;;;;12.32;9.30;;;;;;;-144.13;100.00;64086.75;5013381;28;20033;-45
2021/07/05 01:55:22;;;;;;;13.43;10.20;;;;;;;-144.13;100.00;64086.75;5015493;28;20029;-46
2021/07/05 01:57:48;;;;;;;11.70;10.05;;;;;;;-144.13;100.00;64086.75;5012386;28;20237;-46
2021/07/05 02:00:16;;;;;;;11.48;9.75;;;;;;;-144.13;100.00;64086.75;5015396;28;20406;-46
2021/07/05 02:02:44;;;;;;;16.42;9.75;;;;;;;-144.13;100.00;64086.75;5016590;28;20020;-46
2021/07/05 02:05:12;;;;;;;10.73;9.40;;;;;;;-144.13;100.00;64086.75;5015188;28;20095;-45
2021/07/05 02:07:38;;;;;;;11.82;9.50;;;;;;;-144.13;100.00;64086.75;5019122;28;20117;-47
2021/07/05 02:10:10;;;;;;;14.27;11.20;;;;;;;-144.13;100.00;64086.75;5013440;28;20026;-46
2021/07/05 02:12:37;;;;;;;10.77;9.35;;;;;;;-144.13;100.00;64086.75;5018716;28;20037;-47
2021/07/05 02:15:08;;;;;;;15.20;11.25;;;;;;;-144.13;100.00;64086.75;5023167;23;20036;-50
2021/07/05 02:17:35;;;;;;;18.13;10.88;;;;;;;-144.13;100.00;64086.75;5002697;28;20049;-50
2021/07/05 02:20:01;;;;;;;14.93;11.45;;;;;;;-144.13;100.00;64086.75;5006846;28;20072;-49
2021/07/05 02:22:27;;;;;;;18.08;14.10;;;;;;;-144.13;100.00;64086.75;5004798;28;20025;-47
2021/07/05 02:24:52;;;;;;;18.50;13.45;;;;;;;-144.13;100.00;64086.75;5008439;28;20056;-49
2021/07/05 02:27:18;;;;;;;12.93;10.73;;;;;;;-144.13;100.00;64086.75;5004419;28;20064;-47
2021/07/05 02:29:43;;;;;;;15.43;10.73;;;;;;;-144.13;100.00;64086.75;4991344;28;20065;-49
2021/07/05 02:32:09;;;;;;;16.08;10.43;;;;;;;-144.13;100.00;64086.75;5003961;28;20391;-50
2021/07/05 02:34:35;;;;;;;16.45;10.65;;;;;;;-144.13;100.00;64086.75;5010502;28;20483;-48
2021/07/05 02:37:00;;;;;;;14.32;10.32;;;;;;;-144.13;100.00;64086.75;5005304;28;20025;-49
2021/07/05 02:39:25;;;;;;;17.38;12.70;;;;;;;-144.13;100.00;64086.75;5005436;28;20037;-48
2021/07/05 02:41:51;;;;;;;16.48;12.65;;;;;;;-144.13;100.00;64086.75;5006652;28;20530;-50
2021/07/05 02:44:16;;;;;;;16.00;12.93;;;;;;;-144.13;100.00;64086.75;5006153;28;20451;-48
2021/07/05 02:46:42;;;;;;;14.20;10.85;;;;;;;-144.13;100.00;64086.75;5004899;28;20030;-50
2021/07/05 02:49:08;;;;;;;12.18;10.20;;;;;;;-144.13;100.00;64086.75;5005921;28;20087;-49
2021/07/05 02:51:34;;;;;;;14.93;11.07;;;;;;;-144.13;100.00;64086.75;5006285;28;20026;-49
2021/07/05 02:54:00;;;;;;;16.80;10.23;;;;;;;-144.13;100.00;64086.75;5004423;28;20030;-47
2021/07/05 02:56:25;;;;;;;15.07;10.23;;;;;;;-144.13;100.00;64086.75;5006350;28;20048;-47
2021/07/05 02:58:51;;;;;;;14.57;10.25;;;;;;;-144.13;100.00;64086.75;5005915;28;20087;-51
2021/07/05 03:01:18;;;;;;;14.52;10.25;;;;;;;-144.13;100.00;64086.75;5005399;28;20022;-50
2021/07/05 03:03:44;;;;;;;16.77;10.95;;;;;;;-144.13;100.00;64086.75;5008987;28;20091;-47
2021/07/05 03:06:09;;;;;;;14.20;11.20;;;;;;;-144.13;100.00;64086.75;5007058;28;20423;-48
2021/07/05 03:08:35;;;;;;;13.65;11.27;;;;;;;-144.13;100.00;64086.75;5003334;28;20038;-48
2021/07/05 03:11:01;;;;;;;14.63;10.82;;;;;;;-144.13;100.00;64086.75;5004727;28;20026;-48
2021/07/05 03:13:26;;;;;;;12.98;11.20;;;;;;;-144.13;100.00;64086.75;5003600;28;20025;-47
2021/07/05 03:15:53;;;;;;;18.73;14.55;;;;;;;-144.13;100.00;64086.75;5004629;28;20029;-49
2021/07/05 03:18:18;;;;;;;18.17;11.75;;;;;;;-144.13;100.00;64086.75;5005815;28;20053;-47
2021/07/05 03:20:47;;;;;;;19.02;13.48;;;;;;;-144.13;100.00;64086.75;5002296;28;20065;-48
2021/07/05 03:23:16;;;;;;;15.40;13.10;;;;;;;-144.13;100.00;64086.75;5006537;28;20099;-47
2021/07/05 03:25:42;;;;;;;15.30;13.20;;;;;;;-144.13;100.00;64086.75;5006969;28;20135;-47
2021/07/05 03:28:10;;;;;;;15.88;12.15;;;;;;;-144.13;100.00;64086.75;5006811;28;20026;-47
2021/07/05 03:30:37;;;;;;;15.98;11.38;;;;;;;-144.13;100.00;64086.75;5006980;28;20041;-47
2021/07/05 03:33:05;;;;;;;14.95;12.48;;;;;;;-144.13;100.00;64086.75;5006188;28;20089;-51
2021/07/05 03:35:31;;;;;;;14.25;11.57;;;;;;;-144.13;100.00;64086.75;5006312;28;20431;-50
2021/07/05 03:37:57;;;;;;;14.45;11.48;;;;;;;-144.13;100.00;64086.75;5002591;28;20498;-48
2021/07/05 03:40:26;;;;;;;14.65;11.07;;;;;;;-144.13;100.00;64086.75;5008615;28;20037;-51
2021/07/05 03:42:53;;;;;;;15.15;12.23;;;;;;;-144.13;100.00;64086.75;5004296;28;20021;-51
2021/07/05 03:45:28;;;;;;;17.63;11.18;;;;;;;-144.13;100.00;64086.75;5004658;28;20087;-49
2021/07/05 03:47:53;;;;;;;;;;;;;;;-144.13;100.00;64086.75;5007289;28;21525;-48
2021/07/05 03:50:20;;;;;;;13.40;11.65;;;;;;;-144.13;100.00;64086.75;5005646;28;19922;-48
2021/07/05 03:52:47;;;;;;;15.45;11.43;;;;;;;-144.13;100.00;64086.75;5004494;28;20021;-47
2021/07/05 03:55:16;;;;;;;13.85;10.95;;;;;;;-144.13;100.00;64086.75;5004479;28;20026;-49
2021/07/05 03:57:42;;;;;;;13.23;11.07;;;;;;;-144.13;100.00;64086.75;5004726;28;20391;-47
2021/07/05 04:00:12;;;;;;;13.98;12.45;;;;;;;-144.13;100.00;64086.75;5003911;28;20103;-48
2021/07/05 04:02:38;;;;;;;12.50;10.88;;;;;;;-144.13;100.00;64086.75;5003372;28;20030;-48
2021/07/05 04:05:04;;;;;;;14.40;11.40;;;;;;;-144.13;100.00;64086.75;5007715;28;20026;-50
2021/07/05 04:07:30;;;;;;;12.38;9.95;;;;;;;-144.13;100.00;64086.75;5005372;28;20065;-49
2021/07/05 04:09:57;;;;;;;13.43;10.88;;;;;;;-144.13;100.00;64086.75;5002844;28;20276;-48
2021/07/05 04:12:22;;;;;;;20.42;11.15;;;;;;;-144.13;100.00;64086.75;5005823;28;20456;-47
2021/07/05 04:14:49;;;;;;;15.68;12.23;;;;;;;-144.13;100.00;64086.75;5004621;28;20028;-49
2021/07/05 04:17:15;;;;;;;15.68;12.20;;;;;;;-144.13;100.00;64086.75;5004063;28;20088;-47
2021/07/05 04:19:42;;;;;;;14.95;11.43;;;;;;;-144.13;100.00;64086.75;5002298;28;20479;-48
2021/07/05 04:22:08;;;;;;;16.50;11.65;;;;;;;-144.13;100.00;64086.75;5004572;28;20034;-49
2021/07/05 04:24:33;;;;;;;14.98;11.20;;;;;;;-144.13;100.00;64086.75;5000868;28;20115;-49
2021/07/05 04:26:59;;;;;;;13.63;10.18;;;;;;;-144.13;100.00;64086.75;5001893;28;20041;-52
2021/07/05 04:29:24;;;;;;;11.90;10.70;;;;;;;-144.13;100.00;64086.75;5002353;28;20542;-49
2021/07/05 04:31:50;;;;;;;13.38;11.88;;;;;;;-144.13;100.00;64086.75;4999332;28;20419;-50
2021/07/05 04:34:16;;;;;;;12.55;10.68;;;;;;;-144.13;100.00;64086.75;4987754;28;20051;-48
2021/07/05 04:36:41;;;;;;;15.30;11.70;;;;;;;-144.13;100.00;64086.75;5004914;28;20025;-49
2021/07/05 04:39:08;;;;;;;13.38;11.55;;;;;;;-144.13;100.00;64086.75;5000566;28;20386;-50
2021/07/05 04:41:34;;;;;;;14.15;10.38;;;;;;;-144.13;100.00;64086.75;5003687;28;20037;-48
2021/07/05 04:44:00;;;;;;;12.63;10.43;;;;;;;-144.13;100.00;64086.75;5000885;28;20034;-50
2021/07/05 04:46:26;;;;;;;14.85;10.70;;;;;;;-144.13;100.00;64086.75;5002296;28;20383;-48
2021/07/05 04:48:54;;;;;;;13.25;10.40;;;;;;;-144.13;100.00;64086.75;5002504;28;20053;-47
2021/07/05 04:51:20;;;;;;;13.93;10.57;;;;;;;-144.13;100.00;64086.75;5001145;28;20503;-49
2021/07/05 04:53:46;;;;;;;14.80;11.35;;;;;;;-144.13;100.00;64086.75;5004564;28;20494;-50
2021/07/05 04:56:11;;;;;;;13.80;11.15;;;;;;;-144.13;100.00;64086.75;4999409;28;20037;-48
2021/07/05 04:58:37;;;;;;;13.20;11.63;;;;;;;-144.13;100.00;64086.75;5001591;28;20021;-51
2021/07/05 05:01:04;;;;;;;14.35;11.50;;;;;;;-144.13;100.00;64086.75;5006073;28;20037;-50
2021/07/05 05:03:31;;;;;;;14.25;11.10;;;;;;;-144.13;100.00;64086.75;5004969;28;20017;-49
2021/07/05 05:05:57;;;;;;;15.40;10.75;;;;;;;-144.13;100.00;64086.75;4985299;28;20042;-49
2021/07/05 05:08:22;;;;;;;12.75;11.40;;;;;;;-144.13;100.00;64086.75;5001655;28;20025;-50
2021/07/05 05:10:47;;;;;;;16.20;12.30;;;;;;;-144.13;100.00;64086.75;5003284;28;20443;-48
2021/07/05 05:13:13;;;;;;;14.40;10.40;;;;;;;-144.13;100.00;64086.75;4999975;28;20487;-50
2021/07/05 05:15:39;;;;;;;12.30;10.98;;;;;;;-144.13;100.00;64086.75;5001810;28;20208;-48
2021/07/05 05:18:05;;;;;;;14.57;10.57;;;;;;;-144.13;100.00;64086.75;5003579;28;20026;-48
2021/07/05 05:20:31;;;;;;;17.67;11.73;;;;;;;-144.13;100.00;64086.75;5004739;28;20041;-50
2021/07/05 05:22:57;;;;;;;12.40;10.95;;;;;;;-144.13;100.00;64086.75;5004871;28;20307;-50
2021/07/05 05:25:22;;;;;;;14.75;10.73;;;;;;;-144.13;100.00;64086.75;5005802;28;20044;-48
2021/07/05 05:27:49;;;;;;;14.10;11.32;;;;;;;-144.13;100.00;64086.75;5004842;28;20041;-48
2021/07/05 05:30:17;;;;;;;14.93;12.18;;;;;;;-144.13;100.00;64086.75;5004275;28;20383;-47
2021/07/05 05:32:43;;;;;;;15.13;11.75;;;;;;;-144.13;100.00;64086.75;5007473;28;20022;-51
2021/07/05 05:35:10;;;;;;;14.90;11.18;;;;;;;-144.13;100.00;64086.75;4999027;28;20033;-49
2021/07/05 05:37:35;;;;;;;13.25;10.85;;;;;;;-144.13;100.00;64086.75;5001944;28;20040;-52
2021/07/05 05:40:01;;;;;;;12.00;10.77;;;;;;;-144.13;100.00;64086.75;5005021;28;20030;-47
2021/07/05 05:42:26;;;;;;;14.52;11.32;;;;;;;-144.13;100.00;64086.75;5001072;28;20037;-51
2021/07/05 05:44:52;;;;;;;13.18;10.93;;;;;;;-144.13;100.00;64086.75;5003198;28;20041;-49
2021/07/05 05:47:17;;;;;;;12.20;10.40;;;;;;;-144.13;100.00;64086.75;5001903;28;20444;-48
2021/07/05 05:49:43;;;;;;;15.02;11.30;;;;;;;-144.13;100.00;64086.75;5004345;28;20026;-48
2021/07/05 05:52:09;;;;;;;13.70;10.80;;;;;;;-144.13;100.00;64086.75;5001211;28;20033;-47
2021/07/05 05:54:34;;;;;;;13.77;10.93;;;;;;;-144.13;100.00;64086.75;5005519;28;20187;-48
2021/07/05 05:57:00;;;;;;;12.48;10.13;;;;;;;-144.13;100.00;64086.75;5005890;28;20077;-49
2021/07/05 05:59:26;;;;;;;14.15;10.73;;;;;;;-144.13;100.00;64086.75;5006796;28;20034;-48
2021/07/05 06:01:51;;;;;;;13.20;10.70;;;;;;;-144.13;100.00;64086.75;5006586;28;20053;-51
2021/07/05 06:04:18;;;;;;;13.40;11.10;;;;;;;-144.13;100.00;64086.75;5006477;28;20139;-48
2021/07/05 06:06:44;;;;;;;14.65;11.27;;;;;;;-144.13;100.00;64086.75;5006953;28;20022;-47
2021/07/05 06:09:09;;;;;;;12.02;10.73;;;;;;;-144.13;100.00;64086.75;5005874;28;20041;-49
2021/07/05 06:11:38;;;;;;;12.77;10.65;;;;;;;-144.13;100.00;64086.75;5007876;28;20026;-52
2021/07/05 06:14:05;;;;;;;20.60;11.43;;;;;;;-144.13;100.00;64086.75;5004153;28;20399;-52
2021/07/05 06:16:32;;;;;;;16.35;11.70;;;;;;;-144.13;100.00;64086.75;5006187;28;20261;-53
2021/07/05 06:18:57;;;;;;;13.43;10.93;;;;;;;-144.13;100.00;64086.75;5006130;28;20068;-50
2021/07/05 06:21:25;;;;;;;14.05;11.40;;;;;;;-144.13;100.00;64086.75;5007991;28;20068;-47
2021/07/05 06:23:51;;;;;;;12.77;10.68;;;;;;;-144.13;100.00;64086.75;5007823;28;20037;-47
2021/07/05 06:26:16;;;;;;;12.80;10.68;;;;;;;-144.13;100.00;64086.75;5005053;28;20038;-48
2021/07/05 06:28:42;;;;;;;12.18;10.55;;;;;;;-144.13;100.00;64086.75;5005140;28;20025;-50
2021/07/05 06:31:07;;;;;;;13.20;10.70;;;;;;;-144.13;100.00;64086.75;5003844;28;20040;-51
2021/07/05 06:33:33;;;;;;;13.18;11.63;;;;;;;-144.13;100.00;64086.75;5009939;28;20033;-48
2021/07/05 06:36:00;;;;;;;14.52;12.40;;;;;;;-144.13;100.00;64086.75;5008753;28;20061;-49
2021/07/05 06:38:26;;;;;;;13.55;11.98;;;;;;;-144.13;100.00;64086.75;5006616;28;20096;-48
2021/07/05 06:40:52;;;;;;;12.35;10.95;;;;;;;-144.13;100.00;64086.75;5005987;28;20348;-48
2021/07/05 06:43:18;;;;;;;14.50;11.90;;;;;;;-144.13;100.00;64086.75;5007712;28;20021;-49
2021/07/05 06:45:44;;;;;;;14.30;12.00;;;;;;;-144.13;100.00;64086.75;5006450;28;20174;-51
2021/07/05 06:48:09;;;;;;;13.75;12.27;;;;;;;-144.13;100.00;64086.75;5006531;28;20026;-48
2021/07/05 06:50:36;;;;;;;15.40;12.95;;;;;;;-144.13;100.00;64086.75;4993240;28;20030;-52
2021/07/05 06:53:02;;;;;;;13.50;12.10;;;;;;;-144.13;100.00;64086.75;5006655;28;21586;-48
2021/07/05 06:55:28;;;;;;;16.30;12.43;;;;;;;-144.13;100.00;64086.75;5005552;28;20108;-48
2021/07/05 06:57:54;;;;;;;15.75;12.75;;;;;;;-144.13;100.00;64086.75;5004551;28;20034;-49
2021/07/05 07:00:25;;;;;;;14.02;12.52;;;;;;;-144.13;100.00;64086.75;5008963;28;20513;-50
2021/07/05 07:02:52;;;;;;;15.98;12.63;;;;;;;-144.13;100.00;64086.75;5003880;28;20025;-49
2021/07/05 07:05:19;;;;;;;15.27;12.68;;;;;;;-144.13;100.00;64086.75;5004683;28;20049;-48
2021/07/05 07:07:47;;;;;;;14.25;12.48;;;;;;;-144.13;100.00;64086.75;5003854;28;20099;-49
2021/07/05 07:10:14;;;;;;;15.38;12.20;;;;;;;-144.13;100.00;64086.75;5005181;28;20026;-50
2021/07/05 07:12:42;;;;;;;13.50;11.50;;;;;;;-144.13;100.00;64086.75;5006283;28;20033;-50
2021/07/05 07:15:09;;;;;;;12.80;11.40;;;;;;;-144.13;100.00;64086.75;5005971;28;20091;-50
2021/07/05 07:20:30;;;;;;;13.45;11.38;;;;;;;-144.13;100.00;64086.75;4969252;28;20075;-49
2021/07/05 07:22:56;;;;;;;17.10;11.55;;;;;;;-144.13;100.00;64086.75;5004592;28;20065;-49
2021/07/05 07:25:22;;;;;;;13.90;11.15;;;;;;;-144.13;100.00;64086.75;5005518;28;20057;-51
2021/07/05 07:27:47;;;;;;;14.30;11.00;;;;;;;-144.13;100.00;64086.75;5007874;28;20029;-49
2021/07/05 07:30:14;;;;;;;13.82;11.88;;;;;;;-144.13;100.00;64086.75;5007423;28;20030;-48
2021/07/05 07:32:41;;;;;;;13.00;10.13;;;;;;;-144.13;100.00;64086.75;5006552;28;20464;-48
2021/07/05 07:35:07;;;;;;;14.38;10.48;;;;;;;-144.13;100.00;64086.75;5004206;28;20488;-50
2021/07/05 07:37:34;;;;;;;14.90;9.90;;;;;;;-144.13;100.00;64086.75;5001575;28;20452;-49
2021/07/05 07:40:13;;;;;;;12.27;9.80;;;;;;;-144.13;100.00;64086.75;5001979;28;20034;-49
2021/07/05 07:42:39;;;;;;;12.10;10.82;;;;;;;-144.13;100.00;64086.75;5002496;28;20037;-48
2021/07/05 07:45:05;;;;;;;11.52;10.35;;;;;;;-144.13;100.00;64086.75;5003058;28;20446;-50
2021/07/05 07:47:30;;;;;;;13.00;9.98;;;;;;;-144.13;100.00;64086.75;5009372;28;20026;-53
2021/07/05 07:49:58;;;;;;;12.35;9.07;;;;;;;-144.13;100.00;64086.75;5005010;28;20041;-52
2021/07/05 07:52:23;;;;;;;10.25;9.25;;;;;;;-144.13;100.00;64086.75;5007149;28;20105;-49
2021/07/05 07:54:49;;;;;;;13.65;10.02;;;;;;;-144.13;100.00;64086.75;5005010;28;20183;-49
2021/07/05 07:57:17;;;;;;;9.25;8.35;;;;;;;-144.13;100.00;64086.75;5004359;28;20026;-49
2021/07/05 07:59:44;;;;;;;9.88;8.95;;;;;;;-144.13;100.00;64086.75;5005668;28;20033;-52
2021/07/05 08:02:11;;;;;;;9.02;8.00;;;;;;;-144.13;100.00;64086.75;5001004;28;20678;-52
2021/07/05 08:04:37;;;;;;;12.60;8.30;;;;;;;-144.13;100.00;64086.75;5001816;28;20038;-51
2021/07/05 08:07:03;;;;;;;13.68;8.38;;;;;;;-144.13;100.00;64086.75;5000336;28;20057;-54
2021/07/05 08:09:29;;;;;;;9.38;8.32;;;;;;;-144.13;100.00;64086.75;5002189;28;20064;-53
2021/07/05 08:11:55;;;;;;;11.98;9.32;;;;;;;-144.13;100.00;64086.75;5002525;28;20054;-52
2021/07/05 08:14:20;;;;;;;11.13;9.32;;;;;;;-144.13;100.00;64086.75;5002055;28;20079;-51
2021/07/05 08:16:46;;;;;;;10.20;8.80;;;;;;;-144.13;100.00;64086.75;5035800;23;20034;-77
2021/07/05 08:19:11;;;;;;;14.18;9.07;;;;;;;-144.13;100.00;64086.75;5004516;28;20450;-77
2021/07/05 08:21:37;;;;;;;9.25;8.35;;;;;;;-144.13;100.00;64086.75;5010038;28;20040;-77
2021/07/05 08:24:04;;;;;;;9.85;8.85;;;;;;;-144.13;100.00;64086.75;5012073;28;20487;-77
2021/07/05 08:26:30;;;;;;;9.15;8.30;;;;;;;-144.13;100.00;64086.75;5027765;28;20037;-76
2021/07/05 08:28:56;;;;;;;9.90;8.45;;;;;;;-144.13;100.00;64086.75;5009019;28;20028;-77
2021/07/05 08:31:21;;;;;;;9.27;8.30;;;;;;;-144.13;100.00;64086.75;5011157;28;20030;-77
2021/07/05 08:33:47;;;;;;;8.52;7.60;;;;;;;-144.13;100.00;64086.75;5010999;28;20379;-77
2021/07/05 08:36:13;;;;;;;8.18;6.45;;;;;;;-144.13;100.00;64086.75;5002381;28;20031;-76
2021/07/05 08:38:39;;;;;;;7.18;6.15;;;;;;;-144.13;100.00;64086.75;5015127;28;20072;-76
2021/07/05 08:41:05;;;;;;;6.53;5.93;;;;;;;-144.13;100.00;64086.75;5013791;28;20455;-77
2021/07/05 08:43:31;;;;;;;7.57;6.43;;;;;;;-144.13;100.00;64086.75;5025453;28;20029;-76
2021/07/05 08:46:06;;;;;;;7.72;6.50;;;;;;;-144.13;100.00;64086.75;5017926;28;20029;-77
2021/07/05 08:48:37;;;;;;;8.57;7.20;;;;;;;-144.13;100.00;64086.75;5017779;28;20025;-76
2021/07/05 08:51:05;;;;;;;7.55;6.38;;;;;;;-144.13;100.00;64086.75;5000425;28;20025;-77
2021/07/05 08:53:31;;;;;;;8.85;6.63;;;;;;;-144.13;100.00;64086.75;4996974;28;20025;-77
2021/07/05 08:55:57;;;;;;;6.88;6.28;;;;;;;-144.13;100.00;64086.75;5010238;28;20026;-77
2021/07/05 08:58:22;;;;;;;9.80;6.80;;;;;;;-144.13;100.00;64086.75;5027929;28;20032;-78
2021/07/05 09:00:48;;;;;;;7.40;6.70;;;;;;;-144.13;100.00;64086.75;5010783;28;20033;-78
2021/07/05 09:03:14;;;;;;;10.63;6.38;;;;;;;-144.13;100.00;64086.75;5013057;28;20030;-78
2021/07/05 09:05:40;;;;;;;7.38;6.07;;;;;;;-144.13;100.00;64086.75;5016586;28;20061;-78
2021/07/05 09:08:11;;;;;;;6.90;6.18;;;;;;;-144.13;100.00;64086.75;4995513;28;20227;-77
2021/07/05 09:10:48;;;;;;;8.40;6.82;;;;;;;-144.13;100.00;64086.75;5009744;28;20067;-78
2021/07/05 09:13:17;;;;;;;8.50;6.75;;;;;;;-144.13;100.00;64086.75;5011911;28;21065;-77
2021/07/05 09:15:50;;;;;;;7.50;6.20;;;;;;;-144.13;100.00;64086.75;5022685;28;20037;-78
2021/07/05 09:18:49;;;;;;;6.78;6.07;;;;;;;-144.13;100.00;64086.75;5000005;28;20112;-77
2021/07/05 09:21:26;;;;;;;6.97;6.07;;;;;;;-144.13;100.00;64086.75;4998628;28;20144;-77
2021/07/05 09:24:02;;;;;;;8.10;7.28;;;;;;;-144.13;100.00;64086.75;5001382;28;20056;-77
2021/07/05 09:26:39;;;;;;;7.43;6.72;;;;;;;-144.13;100.00;64086.75;4999364;28;20056;-77
2021/07/05 09:29:24;;;;;;;8.02;7.22;;;;;;;-144.13;100.00;64086.75;4998449;28;20092;-77
2021/07/05 09:31:56;;;;;;;7.60;6.80;;;;;;;-144.13;100.00;64086.75;4996782;28;20387;-77
2021/07/05 09:34:28;;;;;;;8.48;7.68;;;;;;;-144.13;100.00;64086.75;5004402;28;20055;-78
2021/07/05 09:36:56;;;;;;;8.05;7.25;;;;;;;-144.13;100.00;64086.75;5016817;28;20059;-78
2021/07/05 09:39:24;;;;;;;7.90;6.40;;;;;;;-144.13;100.00;64086.75;5017513;28;20115;-76
2021/07/05 09:41:55;;;;;;;6.80;6.10;;;;;;;-144.13;100.00;64086.75;5014380;28;20037;-77
2021/07/05 09:44:25;;;;;;;7.68;6.90;;;;;;;-144.13;100.00;64086.75;5015188;28;20152;-77
2021/07/05 09:46:56;;;;;;;8.18;6.68;;;;;;;-144.13;100.00;64086.75;5018322;28;20383;-77
2021/07/05 09:49:26;;;;;;;9.18;6.40;;;;;;;-144.13;100.00;64086.75;5015120;28;20025;-77
2021/07/05 09:52:25;;;;;;;6.88;6.10;;;;;;;-144.13;100.00;64086.75;5001165;28;20079;-77
2021/07/05 09:54:52;;;;;;;9.50;6.05;;;;;;;-144.13;100.00;64086.75;5016469;28;20021;-77
2021/07/05 09:57:25;;;;;;;9.65;6.55;;;;;;;-144.13;100.00;64086.75;5014399;28;20034;-77
2021/07/05 10:00:12;;;;;;;10.18;6.85;;;;;;;-144.13;100.00;64086.75;5014381;28;20033;-77
2021/07/05 10:02:55;;;;;;;7.55;6.50;;;;;;;-144.13;100.00;64086.75;4998654;28;20030;-77
2021/07/05 10:05:21;;;;;;;14.57;7.50;;;;;;;-144.13;100.00;64086.75;4998814;28;20033;-77
2021/07/05 10:08:06;;;;;;;8.70;7.88;;;;;;;-144.13;100.00;64086.75;5002590;28;20510;-76
2021/07/05 10:10:33;;;;;;;8.48;7.68;;;;;;;-144.13;100.00;64086.75;5012953;28;20123;-77
2021/07/05 10:13:05;;;;;;;9.18;8.07;;;;;;;-144.13;100.00;64086.75;4995143;28;20022;-76
2021/07/05 10:15:32;;;;;;;10.80;9.15;;;;;;;-144.13;100.00;64086.75;4995584;28;20083;-76
2021/07/05 10:17:58;;;;;;;12.18;9.10;;;;;;;-144.13;100.00;64086.75;4998549;28;20021;-77
2021/07/05 10:20:25;;;;;;;10.32;8.73;;;;;;;-144.13;100.00;64086.75;5028682;28;20475;-76
2021/07/05 10:22:55;;;;;;;10.63;9.63;;;;;;;-144.13;100.00;64086.75;5012604;28;20416;-77
2021/07/05 10:25:21;;;;;;;11.63;10.32;;;;;;;-144.13;100.00;64086.75;5013517;28;20525;-77
2021/07/05 10:27:47;;;;;;;11.30;10.20;;;;;;;-144.13;100.00;64086.75;5026326;28;20025;-77
2021/07/05 10:30:15;;;;;;;12.60;10.32;;;;;;;-144.13;100.00;64086.75;5013175;28;20087;-77
2021/07/05 10:32:42;;;;;;;11.70;9.82;;;;;;;-144.13;100.00;64086.75;5026244;28;20375;-77
2021/07/05 10:35:10;;;;;;;11.82;10.32;;;;;;;-144.13;100.00;64086.75;5013274;28;20025;-76
2021/07/05 10:37:53;;;;;;;11.30;10.20;;;;;;;-144.13;100.00;64086.75;5022964;28;20187;-76
2021/07/05 10:40:45;;;;;;;13.18;10.60;;;;;;;-144.13;100.00;64086.75;5022757;28;20028;-77
2021/07/05 10:43:14;;;;;;;14.52;10.38;;;;;;;-144.13;100.00;64086.75;4996769;28;20125;-76
2021/07/05 10:45:59;;;;;;;12.20;10.55;;;;;;;-144.13;100.00;64086.75;5018020;28;20221;-76
2021/07/05 10:48:31;;;;;;;11.52;10.25;;;;;;;-144.13;100.00;64086.75;5001667;28;20369;-76
2021/07/05 10:50:58;;;;;;;11.57;10.15;;;;;;;-144.13;100.00;64086.75;5019765;28;20105;-76
2021/07/05 10:53:32;;;;;;;11.48;9.60;;;;;;;-144.13;100.00;64086.75;5003242;28;20301;-76
2021/07/05 10:56:00;;;;;;;10.93;9.88;;;;;;;-144.13;100.00;64086.75;5019131;28;20971;-75
2021/07/05 10:58:31;;;;;;;12.05;10.15;;;;;;;-144.13;100.00;64086.75;5020078;28;20119;-75
2021/07/05 11:00:56;;;;;;;10.75;9.75;;;;;;;-144.13;100.00;64086.75;5030376;28;20056;-76
2021/07/05 11:03:37;;;;;;;10.40;9.30;;;;;;;-144.13;100.00;64086.75;5015006;28;20239;-75